createdAt,value
2023-04-05T00:01:08.229Z,5.63
2023-04-05T00:03:36.503Z,5.58
2023-04-05T00:06:05.492Z,5.41
2023-04-05T00:08:33.515Z,5.18
2023-04-05T00:11:02.025Z,5.02
2023-04-05T00:13:31.511Z,5.12
2023-04-05T00:16:01.330Z,5.04
2023-04-05T00:18:34.274Z,5.12
2023-04-05T00:21:02.697Z,5.07
2023-04-05T00:23:37.527Z,5.11
2023-04-05T00:26:05.568Z,5.18
2023-04-05T00:28:36.123Z,5.19
2023-04-05T00:31:04.985Z,5.08
2023-04-05T00:33:33.035Z,4.92
2023-04-05T00:36:10.267Z,4.95
2023-04-05T00:38:38.525Z,5.09
2023-04-05T00:41:06.560Z,5.10
2023-04-05T00:43:36.959Z,5.01
2023-04-05T00:46:05.756Z,5.06
2023-04-05T00:48:34.119Z,5.12
2023-04-05T00:51:02.643Z,5.06
2023-04-05T00:53:32.119Z,4.98
2023-04-05T00:56:00.138Z,5.04
2023-04-05T00:58:28.511Z,5.11
2023-04-05T01:01:05.487Z,5.03
2023-04-05T01:03:37.185Z,4.93
2023-04-05T01:06:22.023Z,4.90
2023-04-05T01:09:01.337Z,4.97
2023-04-05T01:11:32.365Z,5.08
2023-04-05T01:14:00.939Z,5.15
2023-04-05T01:16:30.550Z,5.24
2023-04-05T01:18:58.648Z,5.21
2023-04-05T01:21:59.435Z,5.10
2023-04-05T01:24:39.692Z,5.10
2023-04-05T01:27:11.560Z,5.16
2023-04-05T01:30:04.666Z,5.16
2023-04-05T01:32:48.571Z,5.04
2023-04-05T01:35:23.414Z,4.16
2023-04-05T01:37:56.978Z,3.88
2023-04-05T01:40:25.667Z,3.97
2023-04-05T01:42:53.619Z,4.10
2023-04-05T01:45:23.072Z,4.21
2023-04-05T01:47:51.095Z,4.28
2023-04-05T01:50:21.341Z,4.28
2023-04-05T01:52:49.270Z,4.43
2023-04-05T01:55:17.817Z,4.44
2023-04-05T01:57:45.881Z,4.50
2023-04-05T02:00:14.776Z,4.66
2023-04-05T02:02:44.145Z,4.70
2023-04-05T02:05:12.097Z,4.73
2023-04-05T02:07:40.099Z,4.78
2023-04-05T02:10:09.668Z,4.77
2023-04-05T02:12:39.796Z,4.72
2023-04-05T02:15:08.666Z,4.54
2023-04-05T02:17:39.462Z,4.64
2023-04-05T02:20:12.472Z,4.47
2023-04-05T02:22:40.949Z,4.53
2023-04-05T02:25:09.897Z,4.66
2023-04-05T02:27:39.746Z,4.70
2023-04-05T02:30:09.521Z,4.74
2023-04-05T02:32:37.568Z,4.64
2023-04-05T02:35:06.199Z,4.65
2023-04-05T02:37:35.588Z,4.60
2023-04-05T02:40:04.674Z,4.66
2023-04-05T02:42:32.650Z,4.63
2023-04-05T02:45:01.253Z,4.25
2023-04-05T02:47:29.552Z,3.98
2023-04-05T02:50:00.477Z,4.07
2023-04-05T02:52:37.598Z,4.19
2023-04-05T02:55:06.370Z,4.16
2023-04-05T02:57:35.629Z,4.30
2023-04-05T03:00:19.094Z,4.31
2023-04-05T03:02:47.152Z,4.36
2023-04-05T03:05:18.665Z,4.31
2023-04-05T03:07:52.425Z,4.41
2023-04-05T03:10:25.220Z,4.42
2023-04-05T03:12:58.769Z,4.49
2023-04-05T03:15:28.965Z,4.55
2023-04-05T03:17:58.624Z,4.18
2023-04-05T03:20:27.026Z,4.05
2023-04-05T03:23:00.885Z,4.17
2023-04-05T03:25:32.676Z,4.29
2023-04-05T03:28:00.774Z,4.32
2023-04-05T03:30:32.599Z,4.17
2023-04-05T03:33:13.747Z,4.11
2023-04-05T03:35:45.674Z,4.19
2023-04-05T03:38:16.354Z,4.16
2023-04-05T03:40:56.587Z,4.19
2023-04-05T03:43:27.849Z,4.23
2023-04-05T03:45:55.977Z,4.31
2023-04-05T03:48:27.098Z,4.24
2023-04-05T03:50:55.056Z,4.34
2023-04-05T03:53:24.343Z,4.19
2023-04-05T03:55:55.824Z,4.10
2023-04-05T03:58:46.766Z,4.24
2023-04-05T04:01:16.720Z,4.27
2023-04-05T04:03:44.712Z,4.35
2023-04-05T04:06:12.875Z,4.41
2023-04-05T04:08:42.664Z,4.34
2023-04-05T04:11:11.264Z,4.27
2023-04-05T04:13:41.213Z,4.20
2023-04-05T04:16:18.920Z,4.13
2023-04-05T04:18:56.466Z,4.00
2023-04-05T04:21:40.044Z,3.99
2023-04-05T04:24:09.537Z,4.00
2023-04-05T04:26:55.872Z,4.08
2023-04-05T04:29:48.023Z,4.12
2023-04-05T04:32:54.965Z,4.10
2023-04-05T04:35:47.316Z,3.98
2023-04-05T04:38:21.685Z,3.72
2023-04-05T04:41:11.758Z,3.23
2023-04-05T04:43:45.509Z,3.19
2023-04-05T04:46:42.869Z,3.08
2023-04-05T04:49:17.284Z,3.22
2023-04-05T04:51:49.549Z,3.30
2023-04-05T04:54:22.334Z,3.39
2023-04-05T04:56:51.697Z,3.47
2023-04-05T04:59:19.703Z,3.45
2023-04-05T05:01:47.666Z,3.50
2023-04-05T05:04:15.671Z,3.50
2023-04-05T05:06:44.256Z,3.49
2023-04-05T05:09:12.254Z,3.47
2023-04-05T05:11:48.389Z,3.38
2023-04-05T05:14:17.705Z,3.39
2023-04-05T05:16:45.843Z,3.38
2023-04-05T05:19:13.784Z,3.38
2023-04-05T05:21:47.031Z,3.46
2023-04-05T05:24:15.277Z,3.42
2023-04-05T05:26:43.205Z,2.85
2023-04-05T05:29:11.420Z,2.95
2023-04-05T05:31:44.142Z,3.18
2023-04-05T05:34:12.053Z,3.28
2023-04-05T05:36:43.414Z,3.11
2023-04-05T05:39:11.638Z,3.22
2023-04-05T05:41:39.615Z,3.34
2023-04-05T05:44:07.867Z,3.26
2023-04-05T05:46:35.828Z,3.36
2023-04-05T05:49:05.209Z,3.47
2023-04-05T05:51:33.700Z,3.38
2023-04-05T05:54:01.659Z,3.51
2023-04-05T05:56:29.897Z,3.52
2023-04-05T05:58:59.545Z,3.43
2023-04-05T06:01:28.696Z,3.46
2023-04-05T06:03:56.860Z,3.47
2023-04-05T06:06:26.965Z,3.50
2023-04-05T06:08:55.045Z,3.57
2023-04-05T06:11:24.912Z,3.61
2023-04-05T06:13:55.007Z,3.37
2023-04-05T06:16:23.301Z,3.38
2023-04-05T06:18:51.354Z,3.50
2023-04-05T06:21:19.511Z,3.59
2023-04-05T06:23:49.053Z,3.78
2023-04-05T06:26:18.868Z,3.90
2023-04-05T06:28:48.076Z,4.02
2023-04-05T06:31:17.652Z,4.01
2023-04-05T06:33:45.926Z,4.06
2023-04-05T06:36:14.043Z,4.16
2023-04-05T06:38:41.997Z,4.21
2023-04-05T06:41:11.420Z,4.28
2023-04-05T06:43:39.425Z,4.36
2023-04-05T06:46:11.547Z,4.27
2023-04-05T06:48:39.966Z,4.32
2023-04-05T06:51:08.000Z,4.32
2023-04-05T06:53:35.982Z,4.18
2023-04-05T06:56:04.024Z,4.17
2023-04-05T06:58:33.427Z,4.34
2023-04-05T07:01:01.958Z,4.48
2023-04-05T07:03:30.046Z,4.42
2023-04-05T07:06:00.249Z,4.45
2023-04-05T07:08:29.712Z,4.58
2023-04-05T07:10:57.669Z,4.72
2023-04-05T07:13:26.134Z,4.74
2023-04-05T07:16:01.723Z,4.56
2023-04-05T07:18:30.253Z,4.53
2023-04-05T07:21:01.997Z,4.55
2023-04-05T07:23:30.306Z,4.62
2023-04-05T07:26:04.598Z,4.68
2023-04-05T07:28:33.855Z,4.80
2023-04-05T07:31:03.537Z,4.97
2023-04-05T07:33:31.458Z,5.19
2023-04-05T07:35:59.650Z,5.38
2023-04-05T07:38:29.291Z,5.61
2023-04-05T07:40:57.512Z,5.81
2023-04-05T07:43:25.971Z,5.91
2023-04-05T07:45:54.250Z,5.83
2023-04-05T07:48:23.484Z,5.60
2023-04-05T07:50:53.019Z,5.61
2023-04-05T07:53:21.225Z,5.78
2023-04-05T07:55:51.019Z,5.96
2023-04-05T07:58:18.887Z,5.88
2023-04-05T08:00:46.810Z,5.84
2023-04-05T08:03:14.992Z,5.63
2023-04-05T08:05:44.292Z,5.58
2023-04-05T08:08:12.630Z,5.53
2023-04-05T08:10:41.110Z,5.67
2023-04-05T08:13:09.288Z,5.90
2023-04-05T08:15:37.423Z,5.87
2023-04-05T08:18:05.479Z,5.87
2023-04-05T08:20:39.325Z,5.92
2023-04-05T08:23:09.030Z,5.91
2023-04-05T08:25:36.933Z,5.95
2023-04-05T08:28:05.489Z,5.98
2023-04-05T08:30:33.416Z,5.90
2023-04-05T08:33:01.383Z,5.91
2023-04-05T08:35:29.327Z,6.22
2023-04-05T08:37:57.549Z,6.44
2023-04-05T08:40:40.561Z,6.42
2023-04-05T08:43:12.857Z,6.25
2023-04-05T08:45:49.019Z,6.08
2023-04-05T08:48:17.160Z,5.96
2023-04-05T08:50:52.308Z,6.11
2023-04-05T08:53:20.448Z,6.18
2023-04-05T08:55:52.295Z,6.22
2023-04-05T08:58:22.260Z,6.46
2023-04-05T09:00:51.676Z,6.55
2023-04-05T09:03:23.095Z,6.49
2023-04-05T09:05:53.686Z,6.68
2023-04-05T09:08:22.378Z,6.85
2023-04-05T09:10:52.651Z,6.88
2023-04-05T09:13:21.193Z,6.69
2023-04-05T09:15:49.843Z,6.86
2023-04-05T09:18:26.307Z,6.86
2023-04-05T09:20:58.320Z,7.09
2023-04-05T09:23:26.292Z,7.21
2023-04-05T09:25:55.581Z,7.23
2023-04-05T09:28:23.604Z,7.25
2023-04-05T09:30:51.523Z,7.37
2023-04-05T09:33:22.218Z,7.44
2023-04-05T09:35:51.848Z,7.56
2023-04-05T09:38:20.606Z,7.53
2023-04-05T09:40:51.471Z,7.71
2023-04-05T09:43:42.260Z,7.71
2023-04-05T09:46:30.257Z,7.72
2023-04-05T09:48:58.292Z,7.78
2023-04-05T09:51:33.622Z,7.71
2023-04-05T09:54:03.743Z,7.73
2023-04-05T09:56:33.229Z,7.50
2023-04-05T09:59:04.656Z,7.42
2023-04-05T10:01:33.257Z,7.43
2023-04-05T10:04:02.174Z,7.55
2023-04-05T10:06:37.432Z,7.81
2023-04-05T10:09:06.741Z,8.30
2023-04-05T10:11:35.642Z,8.17
2023-04-05T10:14:06.844Z,8.24
2023-04-05T10:16:39.222Z,8.07
2023-04-05T10:19:16.220Z,8.20
2023-04-05T10:21:46.288Z,8.15
2023-04-05T10:24:24.105Z,8.20
2023-04-05T10:27:01.010Z,8.30
2023-04-05T10:29:39.465Z,8.54
2023-04-05T10:32:15.054Z,8.45
2023-04-05T10:34:46.978Z,8.42
2023-04-05T10:37:24.776Z,8.44
2023-04-05T10:39:53.023Z,8.54
2023-04-05T10:42:22.780Z,8.66
2023-04-05T10:44:55.837Z,8.63
2023-04-05T10:47:27.387Z,8.47
2023-04-05T10:49:58.252Z,8.47
2023-04-05T10:52:27.338Z,8.70
2023-04-05T10:54:57.942Z,8.81
2023-04-05T10:57:27.065Z,9.04
2023-04-05T10:59:57.386Z,9.00
2023-04-05T11:02:25.691Z,8.88
2023-04-05T11:04:56.974Z,8.98
2023-04-05T11:07:25.531Z,9.05
2023-04-05T11:09:56.654Z,9.19
2023-04-05T11:13:06.764Z,9.13
2023-04-05T11:15:36.896Z,9.25
2023-04-05T11:18:10.104Z,9.06
2023-04-05T11:20:45.973Z,9.06
2023-04-05T11:23:15.674Z,9.35
2023-04-05T11:25:48.417Z,9.44
2023-04-05T11:28:24.692Z,9.55
2023-04-05T11:30:57.091Z,9.67
2023-04-05T11:33:38.795Z,9.52
2023-04-05T11:36:07.179Z,9.51
2023-04-05T11:38:35.258Z,9.67
2023-04-05T11:41:07.689Z,9.71
2023-04-05T11:43:38.345Z,9.65
2023-04-05T11:46:07.705Z,9.74
2023-04-05T11:48:36.447Z,9.94
2023-04-05T11:51:09.631Z,10.11
2023-04-05T11:53:37.922Z,10.27
2023-04-05T11:56:12.660Z,10.36
2023-04-05T11:58:40.900Z,10.44
2023-04-05T12:01:10.606Z,10.39
2023-04-05T12:03:38.821Z,10.41
2023-04-05T12:06:08.283Z,10.57
2023-04-05T12:08:40.442Z,10.72
2023-04-05T12:11:10.018Z,10.87
2023-04-05T12:13:38.836Z,10.99
2023-04-05T12:16:08.901Z,11.06
2023-04-05T12:18:38.913Z,11.08
2023-04-05T12:21:09.153Z,11.14
2023-04-05T12:23:38.443Z,11.16
2023-04-05T12:26:08.283Z,10.94
2023-04-05T12:28:52.306Z,10.19
2023-04-05T12:31:36.668Z,10.39
2023-04-05T12:34:06.109Z,10.49
2023-04-05T12:36:34.344Z,10.28
2023-04-05T12:39:07.487Z,10.25
2023-04-05T12:41:36.722Z,10.41
2023-04-05T12:44:07.167Z,10.67
2023-04-05T12:46:41.640Z,10.77
2023-04-05T12:49:13.810Z,10.57
2023-04-05T12:51:43.939Z,10.17
2023-04-05T12:54:14.154Z,10.41
2023-04-05T12:56:42.259Z,10.54
2023-04-05T12:59:10.365Z,10.69
2023-04-05T13:01:39.451Z,10.51
2023-04-05T13:04:15.339Z,10.61
2023-04-05T13:06:47.526Z,10.71
2023-04-05T13:09:16.235Z,10.98
2023-04-05T13:11:44.138Z,10.98
2023-04-05T13:14:12.117Z,10.86
2023-04-05T13:16:40.105Z,10.84
2023-04-05T13:19:08.104Z,11.01
2023-04-05T13:21:36.018Z,10.99
2023-04-05T13:24:05.943Z,11.13
2023-04-05T13:26:33.978Z,11.18
2023-04-05T13:29:01.934Z,11.21
2023-04-05T13:31:29.900Z,11.14
2023-04-05T13:33:57.898Z,11.29
2023-04-05T13:36:26.152Z,11.63
2023-04-05T13:38:54.072Z,11.99
2023-04-05T13:41:23.374Z,11.64
2023-04-05T13:43:51.883Z,11.47
2023-04-05T13:46:19.900Z,11.52
2023-04-05T13:48:47.846Z,11.63
2023-04-05T13:51:16.112Z,11.58
2023-04-05T13:53:44.032Z,11.55
2023-04-05T13:56:11.962Z,11.71
2023-04-05T13:58:41.268Z,11.80
2023-04-05T14:01:09.273Z,11.89
2023-04-05T14:03:37.340Z,12.02
2023-04-05T14:06:05.512Z,12.38
2023-04-05T14:08:33.401Z,12.53
2023-04-05T14:11:01.372Z,12.49
2023-04-05T14:13:29.307Z,12.35
2023-04-05T14:15:58.707Z,12.25
2023-04-05T14:18:27.181Z,12.05
2023-04-05T14:20:56.354Z,12.06
2023-04-05T14:23:27.027Z,12.44
2023-04-05T14:25:55.078Z,12.44
2023-04-05T14:28:23.036Z,12.13
2023-04-05T14:30:51.618Z,12.26
2023-04-05T14:33:21.111Z,12.31
2023-04-05T14:35:49.273Z,12.16
2023-04-05T14:38:17.378Z,12.24
2023-04-05T14:40:45.594Z,12.21
2023-04-05T14:43:13.628Z,12.42
2023-04-05T14:45:41.637Z,12.67
2023-04-05T14:48:10.166Z,12.61
2023-04-05T14:50:39.919Z,12.56
2023-04-05T14:53:08.289Z,12.63
2023-04-05T14:55:36.582Z,12.45
2023-04-05T14:58:05.063Z,12.43
2023-04-05T15:00:34.552Z,12.45
2023-04-05T15:03:02.597Z,12.63
2023-04-05T15:05:30.686Z,12.59
2023-04-05T15:08:00.016Z,12.71
2023-04-05T15:10:28.041Z,12.99
2023-04-05T15:12:56.005Z,12.72
2023-04-05T15:15:23.998Z,12.78
2023-04-05T15:17:52.022Z,12.87
2023-04-05T15:20:20.098Z,12.94
2023-04-05T15:22:48.107Z,12.79
2023-04-05T15:25:17.689Z,12.97
2023-04-05T15:27:45.856Z,12.69
2023-04-05T15:30:14.896Z,12.80
2023-04-05T15:32:42.942Z,12.77
2023-04-05T15:35:11.172Z,12.63
2023-04-05T15:37:39.450Z,12.83
2023-04-05T15:40:08.633Z,12.78
2023-04-05T15:42:37.969Z,12.40
2023-04-05T15:45:06.977Z,12.54
2023-04-05T15:47:35.120Z,12.72
2023-04-05T15:50:03.130Z,12.81
2023-04-05T15:52:31.120Z,12.82
2023-04-05T15:54:59.070Z,12.50
2023-04-05T15:57:27.030Z,12.54
2023-04-05T15:59:56.448Z,12.62
2023-04-05T16:02:25.349Z,12.68
2023-04-05T16:04:53.445Z,12.94
2023-04-05T16:07:21.440Z,12.87
2023-04-05T16:09:49.438Z,12.88
2023-04-05T16:12:17.496Z,12.79
2023-04-05T16:14:45.492Z,12.78
2023-04-05T16:17:16.092Z,12.83
2023-04-05T16:19:44.156Z,12.69
2023-04-05T16:22:12.128Z,12.68
2023-04-05T16:24:40.113Z,12.57
2023-04-05T16:27:08.089Z,12.64
2023-04-05T16:29:36.117Z,12.66
2023-04-05T16:32:04.338Z,12.59
2023-04-05T16:34:33.738Z,12.70
2023-04-05T16:37:01.992Z,12.80
2023-04-05T16:39:30.085Z,12.81
2023-04-05T16:41:58.085Z,12.79
2023-04-05T16:44:26.230Z,12.72
2023-04-05T16:46:54.249Z,12.67
2023-04-05T16:49:22.262Z,12.64
2023-04-05T16:51:51.617Z,12.53
2023-04-05T16:54:19.588Z,12.60
2023-04-05T16:56:47.613Z,12.56
2023-04-05T16:59:15.653Z,12.43
2023-04-05T17:01:43.884Z,12.41
2023-04-05T17:04:12.036Z,12.37
2023-04-05T17:06:40.038Z,12.19
2023-04-05T17:09:09.457Z,12.01
2023-04-05T17:11:37.448Z,12.07
2023-04-05T17:14:06.669Z,12.20
2023-04-05T17:16:34.721Z,12.25
2023-04-05T17:19:02.916Z,12.38
2023-04-05T17:21:31.106Z,12.30
2023-04-05T17:23:59.088Z,12.31
2023-04-05T17:26:29.202Z,11.99
2023-04-05T17:28:57.163Z,12.19
2023-04-05T17:31:25.614Z,12.16
2023-04-05T17:33:53.690Z,11.93
2023-04-05T17:36:21.776Z,11.85
2023-04-05T17:38:49.813Z,11.68
2023-04-05T17:41:17.770Z,11.60
2023-04-05T17:43:47.264Z,12.03
2023-04-05T17:46:18.405Z,11.83
2023-04-05T17:48:50.298Z,11.75
2023-04-05T17:51:20.654Z,11.57
2023-04-05T17:53:48.726Z,11.52
2023-04-05T17:56:16.773Z,11.27
2023-04-05T17:58:44.728Z,11.19
2023-04-05T18:01:15.352Z,11.14
2023-04-05T18:03:43.526Z,11.04
2023-04-05T18:06:12.300Z,11.03
2023-04-05T18:08:40.372Z,10.81
2023-04-05T18:11:08.396Z,10.70
2023-04-05T18:13:36.566Z,10.73
2023-04-05T18:16:04.687Z,10.62
2023-04-05T18:18:34.136Z,10.42
2023-04-05T18:21:02.907Z,10.23
2023-04-05T18:23:31.019Z,10.26
2023-04-05T18:25:59.266Z,10.20
2023-04-05T18:28:27.295Z,10.08
2023-04-05T18:30:55.524Z,10.11
2023-04-05T18:33:23.536Z,9.96
2023-04-05T18:35:53.211Z,9.92
2023-04-05T18:38:21.861Z,9.86
2023-04-05T18:40:49.879Z,9.80
2023-04-05T18:43:17.971Z,9.86
2023-04-05T18:45:46.026Z,9.75
2023-04-05T18:48:14.042Z,9.76
2023-04-05T18:50:42.161Z,9.82
2023-04-05T18:53:11.547Z,9.83
2023-04-05T18:55:39.496Z,9.75
2023-04-05T18:58:07.441Z,9.75
2023-04-05T19:00:35.814Z,9.73
2023-04-05T19:03:03.925Z,9.50
2023-04-05T19:05:32.405Z,9.43
2023-04-05T19:08:00.564Z,9.38
2023-04-05T19:10:29.983Z,9.46
2023-04-05T19:12:58.036Z,9.42
2023-04-05T19:15:26.124Z,9.36
2023-04-05T19:17:54.234Z,9.37
2023-04-05T19:20:22.272Z,9.38
2023-04-05T19:22:50.336Z,9.39
2023-04-05T19:25:18.428Z,9.41
2023-04-05T19:27:47.794Z,9.37
2023-04-05T19:30:16.321Z,9.29
2023-04-05T19:32:44.347Z,9.27
2023-04-05T19:35:12.482Z,9.14
2023-04-05T19:37:40.696Z,9.01
2023-04-05T19:40:09.886Z,8.90
2023-04-05T19:42:37.834Z,8.83
2023-04-05T19:45:09.208Z,8.76
2023-04-05T19:47:44.845Z,8.65
2023-04-05T19:50:45.661Z,8.63
2023-04-05T19:53:36.393Z,8.57
2023-04-05T19:56:10.112Z,8.57
2023-04-05T19:58:38.482Z,8.61
2023-04-05T20:01:08.484Z,8.65
2023-04-05T20:03:38.216Z,8.72
2023-04-05T20:06:08.771Z,8.75
2023-04-05T20:08:38.305Z,8.75
2023-04-05T20:11:09.084Z,8.74
2023-04-05T20:13:44.485Z,8.72
2023-04-05T20:16:16.542Z,8.73
2023-04-05T20:18:48.385Z,8.69
2023-04-05T20:21:17.516Z,8.53
2023-04-05T20:23:45.759Z,8.53
2023-04-05T20:26:16.042Z,8.54
2023-04-05T20:28:50.036Z,8.50
2023-04-05T20:31:22.351Z,8.52
2023-04-05T20:33:53.735Z,8.51
2023-04-05T20:36:23.709Z,8.37
2023-04-05T20:38:51.679Z,8.34
2023-04-05T20:41:20.650Z,8.31
2023-04-05T20:43:48.780Z,8.34
2023-04-05T20:46:17.255Z,8.38
2023-04-05T20:48:46.904Z,8.46
2023-04-05T20:51:15.895Z,8.54
2023-04-05T20:53:44.265Z,8.53
2023-04-05T20:56:12.912Z,8.52
2023-04-05T20:58:41.764Z,8.51
2023-04-05T21:01:10.572Z,8.43
2023-04-05T21:03:40.292Z,8.27
2023-04-05T21:06:10.678Z,8.34
2023-04-05T21:08:41.195Z,8.30
2023-04-05T21:11:10.787Z,8.21
2023-04-05T21:13:39.154Z,8.19
2023-04-05T21:16:07.812Z,8.12
2023-04-05T21:18:36.243Z,8.03
2023-04-05T21:21:04.421Z,7.93
2023-04-05T21:23:34.514Z,7.84
2023-04-05T21:26:04.272Z,7.86
2023-04-05T21:28:32.666Z,7.85
2023-04-05T21:31:00.940Z,7.85
2023-04-05T21:33:29.021Z,7.92
2023-04-05T21:35:57.018Z,7.90
2023-04-05T21:38:25.072Z,7.89
2023-04-05T21:40:55.519Z,7.88
2023-04-05T21:43:23.774Z,7.98
2023-04-05T21:45:52.948Z,8.01
2023-04-05T21:48:21.326Z,8.04
2023-04-05T21:50:49.324Z,8.11
2023-04-05T21:53:17.263Z,8.08
2023-04-05T21:55:45.300Z,8.02
2023-04-05T21:58:14.660Z,8.05
2023-04-05T22:00:42.780Z,8.03
2023-04-05T22:03:10.838Z,8.00
2023-04-05T22:05:39.170Z,7.61
2023-04-05T22:08:08.313Z,6.88
2023-04-05T22:10:37.518Z,6.55
2023-04-05T22:13:05.563Z,6.43
2023-04-05T22:15:34.917Z,6.36
2023-04-05T22:18:03.123Z,6.21
2023-04-05T22:20:31.295Z,6.45
2023-04-05T22:22:59.292Z,6.54
2023-04-05T22:25:27.543Z,6.66
2023-04-05T22:27:59.910Z,6.69
2023-04-05T22:30:28.866Z,6.76
2023-04-05T22:32:58.292Z,6.78
2023-04-05T22:35:26.383Z,6.78
2023-04-05T22:37:54.359Z,6.66
2023-04-05T22:40:26.865Z,6.70
2023-04-05T22:42:54.992Z,6.78
2023-04-05T22:45:23.583Z,6.81
2023-04-05T22:47:52.081Z,6.85
2023-04-05T22:50:21.613Z,6.83
2023-04-05T22:52:49.586Z,6.86
2023-04-05T22:55:17.779Z,6.81
2023-04-05T22:57:45.764Z,6.77
2023-04-05T23:00:14.879Z,6.73
2023-04-05T23:02:43.402Z,6.75
2023-04-05T23:05:13.003Z,6.70
2023-04-05T23:07:42.343Z,6.64
2023-04-05T23:10:11.582Z,6.64
2023-04-05T23:12:39.571Z,6.64
2023-04-05T23:15:08.364Z,6.67
2023-04-05T23:17:36.456Z,6.64
2023-04-05T23:20:05.884Z,6.60
2023-04-05T23:22:34.933Z,6.54
2023-04-05T23:25:04.663Z,6.52
2023-04-05T23:27:32.893Z,6.49
2023-04-05T23:30:01.191Z,6.45
2023-04-05T23:32:29.196Z,6.42
2023-04-05T23:34:57.152Z,6.41
2023-04-05T23:37:25.232Z,6.43
2023-04-05T23:39:53.234Z,6.43
2023-04-05T23:42:22.605Z,6.45
2023-04-05T23:44:50.585Z,6.47
2023-04-05T23:47:18.719Z,6.47
2023-04-05T23:49:46.762Z,6.41
2023-04-05T23:52:14.757Z,6.36
2023-04-05T23:54:42.699Z,6.35
2023-04-05T23:57:11.325Z,6.34
2023-04-05T23:59:40.916Z,6.32
